createdAt,value
2017-09-07T00:00:34.621Z,19.14
2017-09-07T00:01:15.181Z,19.19
2017-09-07T00:01:55.774Z,19.29
2017-09-07T00:02:36.320Z,19.26
2017-09-07T00:03:16.823Z,19.18
2017-09-07T00:03:57.372Z,19.26
2017-09-07T00:04:37.920Z,19.25
2017-09-07T00:05:18.490Z,19.21
2017-09-07T00:05:59.060Z,19.23
2017-09-07T00:06:39.607Z,19.22
2017-09-07T00:07:20.153Z,19.06
2017-09-07T00:08:00.714Z,19.16
2017-09-07T00:08:41.292Z,19.02
2017-09-07T00:09:21.860Z,18.91
2017-09-07T00:10:02.422Z,19.02
2017-09-07T00:10:42.985Z,19.02
2017-09-07T00:11:23.560Z,19.08
2017-09-07T00:12:04.114Z,19
2017-09-07T00:12:44.675Z,19.14
2017-09-07T00:13:25.218Z,19.07
2017-09-07T00:14:05.766Z,19
2017-09-07T00:14:46.324Z,19.13
2017-09-07T00:15:26.890Z,19.04
2017-09-07T00:16:07.463Z,19
2017-09-07T00:16:48.035Z,19.04
2017-09-07T00:17:28.614Z,19.06
2017-09-07T00:18:09.147Z,18.92
2017-09-07T00:18:49.710Z,19
2017-09-07T00:19:30.258Z,19.07
2017-09-07T00:20:10.806Z,18.9
2017-09-07T00:20:51.376Z,18.95
2017-09-07T00:21:31.933Z,18.98
2017-09-07T00:22:12.500Z,18.94
2017-09-07T00:22:53.072Z,18.75
2017-09-07T00:23:33.684Z,18.75
2017-09-07T00:24:14.214Z,18.73
2017-09-07T00:24:54.771Z,18.67
2017-09-07T00:25:35.339Z,18.75
2017-09-07T00:26:15.897Z,18.55
2017-09-07T00:26:56.452Z,18.75
2017-09-07T00:27:37.061Z,18.72
2017-09-07T00:28:17.550Z,18.76
2017-09-07T00:28:58.099Z,18.85
2017-09-07T00:29:38.649Z,18.73
2017-09-07T00:30:19.205Z,18.72
2017-09-07T00:30:59.758Z,18.65
2017-09-07T00:31:40.329Z,18.65
2017-09-07T00:32:20.912Z,18.73
2017-09-07T00:33:01.473Z,18.76
2017-09-07T00:33:42.022Z,18.69
2017-09-07T00:34:22.585Z,18.65
2017-09-07T00:35:03.149Z,18.58
2017-09-07T00:35:43.721Z,18.54
2017-09-07T00:36:24.284Z,18.45
2017-09-07T00:37:04.857Z,18.51
2017-09-07T00:37:45.421Z,18.37
2017-09-07T00:38:25.970Z,18.37
2017-09-07T00:39:06.658Z,18.42
2017-09-07T00:39:47.105Z,18.45
2017-09-07T00:40:27.660Z,18.44
2017-09-07T00:41:08.223Z,18.5
2017-09-07T00:41:48.778Z,18.29
2017-09-07T00:42:29.292Z,18.27
2017-09-07T00:43:09.855Z,18.33
2017-09-07T00:43:50.391Z,18.3
2017-09-07T00:44:30.961Z,18.33
2017-09-07T00:45:11.490Z,18.32
2017-09-07T00:45:52.074Z,18.25
2017-09-07T00:46:32.576Z,18.33
2017-09-07T00:47:13.135Z,18.3
2017-09-07T00:47:53.690Z,18.29
2017-09-07T00:48:34.239Z,18.29
2017-09-07T00:49:14.800Z,18.44
2017-09-07T00:49:55.358Z,18.44
2017-09-07T00:50:35.901Z,18.44
2017-09-07T00:51:16.446Z,18.37
2017-09-07T00:51:57.004Z,18.37
2017-09-07T00:52:37.559Z,18.29
2017-09-07T00:53:18.104Z,18.32
2017-09-07T00:53:58.667Z,18.3
2017-09-07T00:54:39.215Z,18.32
2017-09-07T00:55:19.777Z,18.29
2017-09-07T00:56:00.360Z,18.23
2017-09-07T00:56:40.923Z,18.15
2017-09-07T00:57:21.524Z,18.05
2017-09-07T00:58:02.097Z,18.2
2017-09-07T00:58:42.658Z,18.26
2017-09-07T00:59:23.239Z,18.29
2017-09-07T01:00:03.789Z,18.3
2017-09-07T01:00:44.357Z,18.27
2017-09-07T01:01:24.928Z,18.25
2017-09-07T01:02:05.465Z,18.18
2017-09-07T01:02:46.026Z,18.21
2017-09-07T01:03:26.563Z,18.2
2017-09-07T01:04:07.123Z,18.12
2017-09-07T01:04:47.687Z,18.25
2017-09-07T01:05:28.241Z,18.12
2017-09-07T01:06:08.818Z,17.97
2017-09-07T01:06:49.390Z,17.97
2017-09-07T01:07:29.965Z,17.95
2017-09-07T01:08:10.522Z,17.93
2017-09-07T01:08:51.069Z,18.03
2017-09-07T01:09:31.678Z,18.03
2017-09-07T01:10:12.217Z,17.97
2017-09-07T01:10:52.755Z,18.05
2017-09-07T01:11:33.308Z,17.99
2017-09-07T01:12:13.844Z,18.05
2017-09-07T01:12:54.417Z,18.11
2017-09-07T01:13:34.963Z,18.21
2017-09-07T01:14:15.511Z,18.12
2017-09-07T01:14:56.035Z,17.99
2017-09-07T01:15:36.595Z,18.11
2017-09-07T01:16:17.153Z,18.21
2017-09-07T01:16:57.699Z,18.25
2017-09-07T01:17:38.255Z,18.42
2017-09-07T01:18:18.801Z,18.45
2017-09-07T01:18:59.341Z,18.39
2017-09-07T01:19:39.889Z,18.45
2017-09-07T01:20:20.460Z,18.45
2017-09-07T01:21:01.011Z,18.42
2017-09-07T01:21:41.542Z,18.29
2017-09-07T01:22:22.110Z,18.37
2017-09-07T01:23:02.687Z,18.41
2017-09-07T01:23:43.251Z,18.41
2017-09-07T01:24:23.802Z,18.48
2017-09-07T01:25:04.344Z,18.52
2017-09-07T01:25:44.875Z,18.35
2017-09-07T01:26:25.399Z,18.39
2017-09-07T01:27:05.951Z,18.45
2017-09-07T01:27:46.470Z,18.62
2017-09-07T01:28:27.043Z,18.54
2017-09-07T01:29:07.614Z,18.57
2017-09-07T01:29:48.173Z,18.47
2017-09-07T01:30:28.728Z,18.41
2017-09-07T01:31:09.288Z,18.27
2017-09-07T01:31:49.850Z,18.29
2017-09-07T01:32:30.413Z,18.27
2017-09-07T01:33:10.959Z,18.35
2017-09-07T01:33:51.509Z,18.44
2017-09-07T01:34:32.065Z,18.42
2017-09-07T01:35:12.612Z,18.45
2017-09-07T01:35:53.165Z,18.39
2017-09-07T01:36:33.724Z,18.37
2017-09-07T01:37:14.286Z,18.42
2017-09-07T01:37:54.858Z,18.41
2017-09-07T01:38:35.412Z,18.39
2017-09-07T01:39:15.975Z,18.42
2017-09-07T01:39:56.535Z,18.45
2017-09-07T01:40:37.096Z,18.45
2017-09-07T01:41:17.661Z,18.51
2017-09-07T01:41:58.213Z,18.32
2017-09-07T01:42:38.769Z,18.27
2017-09-07T01:43:19.318Z,18.32
2017-09-07T01:43:59.863Z,18.33
2017-09-07T01:44:40.442Z,18.26
2017-09-07T01:45:20.994Z,18.07
2017-09-07T01:46:01.573Z,17.95
2017-09-07T01:46:42.144Z,17.99
2017-09-07T01:47:22.692Z,17.99
2017-09-07T01:48:03.253Z,17.84
2017-09-07T01:48:43.831Z,17.87
2017-09-07T01:49:24.388Z,17.93
2017-09-07T01:50:04.945Z,18.03
2017-09-07T01:50:45.532Z,17.96
2017-09-07T01:51:26.094Z,18.03
2017-09-07T01:52:06.648Z,17.93
2017-09-07T01:52:47.209Z,17.93
2017-09-07T01:53:27.770Z,17.96
2017-09-07T01:54:08.318Z,17.9
2017-09-07T01:54:48.871Z,18.02
2017-09-07T01:55:29.437Z,18.02
2017-09-07T01:56:09.982Z,18
2017-09-07T01:56:50.549Z,18.17
2017-09-07T01:57:31.118Z,18.12
2017-09-07T01:58:11.682Z,18.18
2017-09-07T01:58:52.197Z,18.21
2017-09-07T01:59:32.773Z,18.2
2017-09-07T02:00:13.333Z,18.33
2017-09-07T02:00:53.888Z,18.3
2017-09-07T02:01:34.458Z,18.3
2017-09-07T02:02:14.993Z,18.36
2017-09-07T02:02:55.534Z,18.45
2017-09-07T02:03:36.086Z,18.37
2017-09-07T02:04:16.636Z,18.37
2017-09-07T02:04:57.175Z,18.47
2017-09-07T02:05:37.743Z,18.42
2017-09-07T02:06:18.289Z,18.41
2017-09-07T02:06:58.840Z,18.47
2017-09-07T02:07:39.410Z,18.39
2017-09-07T02:08:19.980Z,18.32
2017-09-07T02:09:00.518Z,18.29
2017-09-07T02:09:41.070Z,18.23
2017-09-07T02:10:21.604Z,18.26
2017-09-07T02:11:02.157Z,18.15
2017-09-07T02:11:42.721Z,18.18
2017-09-07T02:12:23.279Z,18.15
2017-09-07T02:13:03.843Z,18.23
2017-09-07T02:13:44.400Z,18.27
2017-09-07T02:14:24.967Z,18.33
2017-09-07T02:15:05.554Z,18.29
2017-09-07T02:15:46.098Z,18.39
2017-09-07T02:16:26.666Z,18.45
2017-09-07T02:17:07.214Z,18.41
2017-09-07T02:17:47.789Z,18.36
2017-09-07T02:18:28.386Z,18.42
2017-09-07T02:19:08.904Z,18.41
2017-09-07T02:19:49.467Z,18.42
2017-09-07T02:20:30.013Z,18.44
2017-09-07T02:21:10.570Z,18.47
2017-09-07T02:21:51.145Z,18.44
2017-09-07T02:22:31.701Z,18.29
2017-09-07T02:23:12.258Z,18.36
2017-09-07T02:23:52.794Z,18.45
2017-09-07T02:24:33.368Z,18.45
2017-09-07T02:25:13.954Z,18.45
2017-09-07T02:25:54.494Z,18.44
2017-09-07T02:26:35.049Z,18.3
2017-09-07T02:27:15.608Z,18.42
2017-09-07T02:27:56.164Z,18.42
2017-09-07T02:28:36.692Z,18.36
2017-09-07T02:29:17.262Z,18.25
2017-09-07T02:29:57.824Z,18.33
2017-09-07T02:30:38.361Z,18.33
2017-09-07T02:31:18.906Z,18.29
2017-09-07T02:31:59.471Z,18.27
2017-09-07T02:32:40.038Z,18.29
2017-09-07T02:33:20.616Z,18.36
2017-09-07T02:34:01.177Z,18.5
2017-09-07T02:34:41.713Z,18.44
2017-09-07T02:35:22.274Z,18.58
2017-09-07T02:36:02.845Z,18.5
2017-09-07T02:36:43.394Z,18.44
2017-09-07T02:37:23.956Z,18.6
2017-09-07T02:38:04.500Z,18.44
2017-09-07T02:38:45.054Z,18.44
2017-09-07T02:39:25.637Z,18.44
2017-09-07T02:40:06.176Z,18.55
2017-09-07T02:40:46.720Z,18.51
2017-09-07T02:41:27.275Z,18.45
2017-09-07T02:42:07.840Z,18.41
2017-09-07T02:42:48.404Z,18.47
2017-09-07T02:43:28.941Z,18.41
2017-09-07T02:44:09.489Z,18.27
2017-09-07T02:44:50.051Z,18.3
2017-09-07T02:45:30.606Z,18.32
2017-09-07T02:46:11.161Z,18.42
2017-09-07T02:46:51.708Z,18.44
2017-09-07T02:47:32.262Z,18.25
2017-09-07T02:48:12.835Z,18.27
2017-09-07T02:48:53.404Z,18.2
2017-09-07T02:49:33.965Z,18.26
2017-09-07T02:50:14.495Z,18.14
2017-09-07T02:50:55.056Z,18.2
2017-09-07T02:51:35.628Z,18.26
2017-09-07T02:52:16.195Z,18.23
2017-09-07T02:52:56.750Z,18.23
2017-09-07T02:53:37.307Z,18.21
2017-09-07T02:54:17.852Z,18.21
2017-09-07T02:54:58.416Z,18.27
2017-09-07T02:55:38.965Z,18.07
2017-09-07T02:56:19.531Z,18.18
2017-09-07T02:57:00.097Z,18.21
2017-09-07T02:57:40.638Z,18.17
2017-09-07T02:58:21.200Z,18.1
2017-09-07T02:59:01.743Z,18.05
2017-09-07T02:59:42.294Z,18.17
2017-09-07T03:00:22.870Z,18.23
2017-09-07T03:01:03.411Z,18.23
2017-09-07T03:01:43.969Z,18.26
2017-09-07T03:02:24.537Z,18.23
2017-09-07T03:03:05.109Z,18.21
2017-09-07T03:03:45.657Z,18.17
2017-09-07T03:04:26.188Z,18.26
2017-09-07T03:05:06.761Z,18.21
2017-09-07T03:05:47.320Z,18.27
2017-09-07T03:06:27.880Z,18.27
2017-09-07T03:07:08.450Z,18.26
2017-09-07T03:07:49.013Z,18.3
2017-09-07T03:08:29.559Z,18.35
2017-09-07T03:09:10.109Z,18.37
2017-09-07T03:09:50.669Z,18.35
2017-09-07T03:10:31.217Z,18.36
2017-09-07T03:11:11.796Z,18.2
2017-09-07T03:11:52.332Z,18.11
2017-09-07T03:12:32.884Z,18.08
2017-09-07T03:13:13.436Z,18.23
2017-09-07T03:13:53.997Z,18
2017-09-07T03:14:34.532Z,18.03
2017-09-07T03:15:15.118Z,18.15
2017-09-07T03:15:55.678Z,18.07
2017-09-07T03:16:36.208Z,18.18
2017-09-07T03:17:16.748Z,18.15
2017-09-07T03:17:57.261Z,18.15
2017-09-07T03:18:37.836Z,18.2
2017-09-07T03:19:18.390Z,18.2
2017-09-07T03:19:58.950Z,18.18
2017-09-07T03:20:39.499Z,18.1
2017-09-07T03:21:20.072Z,18.15
2017-09-07T03:22:00.633Z,18.23
2017-09-07T03:22:41.210Z,18.27
2017-09-07T03:23:21.761Z,18.25
2017-09-07T03:24:02.331Z,18.2
2017-09-07T03:24:42.903Z,18.14
2017-09-07T03:25:23.446Z,18.07
2017-09-07T03:26:04.005Z,17.96
2017-09-07T03:26:45.324Z,17.97
2017-09-07T03:27:25.900Z,17.93
2017-09-07T03:28:06.432Z,17.97
2017-09-07T03:28:46.991Z,18.07
2017-09-07T03:29:27.556Z,18.05
2017-09-07T03:30:08.097Z,18.07
2017-09-07T03:30:48.615Z,17.95
2017-09-07T03:31:29.179Z,17.97
2017-09-07T03:32:09.732Z,18.05
2017-09-07T03:32:50.300Z,18.12
2017-09-07T03:33:30.854Z,18.2
2017-09-07T03:34:11.392Z,18.14
2017-09-07T03:34:51.962Z,18.23
2017-09-07T03:35:32.511Z,18.27
2017-09-07T03:36:13.067Z,18.3
2017-09-07T03:36:53.629Z,18.27
2017-09-07T03:37:34.189Z,18.35
2017-09-07T03:38:14.725Z,18.3
2017-09-07T03:38:55.291Z,18.33
2017-09-07T03:39:35.877Z,18.27
2017-09-07T03:40:16.447Z,18.26
2017-09-07T03:40:57.016Z,18.37
2017-09-07T03:41:37.577Z,18.35
2017-09-07T03:42:18.148Z,18.23
2017-09-07T03:42:58.723Z,18.21
2017-09-07T03:43:39.279Z,18.29
2017-09-07T03:44:19.836Z,18.32
2017-09-07T03:45:00.420Z,18.44
2017-09-07T03:45:40.979Z,18.37
2017-09-07T03:46:21.529Z,18.41
2017-09-07T03:47:02.105Z,18.44
2017-09-07T03:47:42.683Z,18.44
2017-09-07T03:48:23.231Z,18.39
2017-09-07T03:49:03.805Z,18.44
2017-09-07T03:49:44.373Z,18.45
2017-09-07T03:50:24.949Z,18.44
2017-09-07T03:51:05.507Z,18.51
2017-09-07T03:51:46.073Z,18.39
2017-09-07T03:52:27.189Z,18.36
2017-09-07T03:53:07.223Z,18.42
2017-09-07T03:53:47.779Z,18.45
2017-09-07T03:54:28.348Z,18.44
2017-09-07T03:55:08.905Z,18.39
2017-09-07T03:55:49.459Z,18.35
2017-09-07T03:56:30.042Z,18.37
2017-09-07T03:57:10.635Z,18.44
2017-09-07T03:57:51.192Z,18.32
2017-09-07T03:58:31.757Z,18.39
2017-09-07T03:59:12.319Z,18.29
2017-09-07T03:59:52.875Z,18.33
2017-09-07T04:00:33.466Z,18.42
2017-09-07T04:01:14.028Z,18.35
2017-09-07T04:01:54.607Z,18.32
2017-09-07T04:02:35.152Z,18.27
2017-09-07T04:03:15.730Z,18.3
2017-09-07T04:03:56.288Z,18.33
2017-09-07T04:04:36.862Z,18.37
2017-09-07T04:05:17.448Z,18.35
2017-09-07T04:05:58.004Z,18.39
2017-09-07T04:06:38.571Z,18.44
2017-09-07T04:07:19.132Z,18.25
2017-09-07T04:07:59.695Z,18.23
2017-09-07T04:08:40.264Z,18.23
2017-09-07T04:09:20.855Z,18.27
2017-09-07T04:10:01.427Z,18.27
2017-09-07T04:10:41.988Z,18.39
2017-09-07T04:11:22.562Z,18.25
2017-09-07T04:12:03.127Z,18.25
2017-09-07T04:12:43.713Z,18.35
2017-09-07T04:13:24.289Z,18.44
2017-09-07T04:14:04.853Z,18.45
2017-09-07T04:14:45.425Z,18.27
2017-09-07T04:15:25.980Z,18.12
2017-09-07T04:16:06.537Z,18.15
2017-09-07T04:16:47.089Z,18.2
2017-09-07T04:17:27.645Z,18.23
2017-09-07T04:18:08.232Z,18.15
2017-09-07T04:18:48.799Z,18.17
2017-09-07T04:19:29.369Z,18.23
2017-09-07T04:20:09.945Z,18.23
2017-09-07T04:20:50.514Z,18.21
2017-09-07T04:21:31.083Z,18.29
2017-09-07T04:22:11.594Z,18.29
2017-09-07T04:22:52.178Z,18.11
2017-09-07T04:23:32.737Z,18
2017-09-07T04:24:13.288Z,17.89
2017-09-07T04:24:53.884Z,17.92
2017-09-07T04:25:34.364Z,18.05
2017-09-07T04:26:14.933Z,18.02
2017-09-07T04:26:55.489Z,17.95
2017-09-07T04:27:36.057Z,17.93
2017-09-07T04:28:16.630Z,17.92
2017-09-07T04:28:57.175Z,18.07
2017-09-07T04:29:37.724Z,18.05
2017-09-07T04:30:18.293Z,18.08
2017-09-07T04:30:58.864Z,18.02
2017-09-07T04:31:39.405Z,18.12
2017-09-07T04:32:19.990Z,17.96
2017-09-07T04:33:00.544Z,17.87
2017-09-07T04:33:41.099Z,17.92
2017-09-07T04:34:21.651Z,17.87
2017-09-07T04:35:02.180Z,17.97
2017-09-07T04:35:42.687Z,17.99
2017-09-07T04:36:23.253Z,17.99
2017-09-07T04:37:03.836Z,18.03
2017-09-07T04:37:44.395Z,18.07
2017-09-07T04:38:24.967Z,18.11
2017-09-07T04:39:05.551Z,18.12
2017-09-07T04:39:46.027Z,18.14
2017-09-07T04:40:26.585Z,18.18
2017-09-07T04:41:07.156Z,18.21
2017-09-07T04:41:47.705Z,18.2
2017-09-07T04:42:28.263Z,18.29
2017-09-07T04:43:08.861Z,18.3
2017-09-07T04:43:49.426Z,18.33
2017-09-07T04:44:29.984Z,18.42
2017-09-07T04:45:10.580Z,18.41
2017-09-07T04:45:51.132Z,18.5
2017-09-07T04:46:31.714Z,18.41
2017-09-07T04:47:12.244Z,18.42
2017-09-07T04:47:52.815Z,18.55
2017-09-07T04:48:33.322Z,18.5
2017-09-07T04:49:13.833Z,18.51
2017-09-07T04:49:54.373Z,18.57
2017-09-07T04:50:34.933Z,18.58
2017-09-07T04:51:15.495Z,18.57
2017-09-07T04:51:56.044Z,18.55
2017-09-07T04:52:36.601Z,18.57
2017-09-07T04:53:17.167Z,18.57
2017-09-07T04:53:57.827Z,18.5
2017-09-07T04:54:38.390Z,18.57
2017-09-07T04:55:18.951Z,18.36
2017-09-07T04:55:59.522Z,18.32
2017-09-07T04:56:40.043Z,18.23
2017-09-07T04:57:20.638Z,18.2
2017-09-07T04:58:01.163Z,18.2
2017-09-07T04:58:41.706Z,18.3
2017-09-07T04:59:22.277Z,18.27
2017-09-07T05:00:02.848Z,18.3
2017-09-07T05:00:43.409Z,18.35
2017-09-07T05:01:23.977Z,18.36
2017-09-07T05:02:04.539Z,18.47
2017-09-07T05:02:45.108Z,18.44
2017-09-07T05:03:25.655Z,18.37
2017-09-07T05:04:06.212Z,18.33
2017-09-07T05:04:46.763Z,18.3
2017-09-07T05:05:27.286Z,18.41
2017-09-07T05:06:07.847Z,18.42
2017-09-07T05:06:48.416Z,18.36
2017-09-07T05:07:28.967Z,18.52
2017-09-07T05:08:09.547Z,18.41
2017-09-07T05:08:50.113Z,18.45
2017-09-07T05:09:30.660Z,18.41
2017-09-07T05:10:11.208Z,18.39
2017-09-07T05:10:51.774Z,18.33
2017-09-07T05:11:32.324Z,18.35
2017-09-07T05:12:12.929Z,18.36
2017-09-07T05:12:53.562Z,18.33
2017-09-07T05:13:34.159Z,18.3
2017-09-07T05:14:14.697Z,18.29
2017-09-07T05:14:55.186Z,18.17
2017-09-07T05:15:35.759Z,18.2
2017-09-07T05:16:16.348Z,18.21
2017-09-07T05:16:56.909Z,18.21
2017-09-07T05:17:37.460Z,18.3
2017-09-07T05:18:18.028Z,18.27
2017-09-07T05:18:58.599Z,18.36
2017-09-07T05:19:39.175Z,18.27
2017-09-07T05:20:19.725Z,18.18
2017-09-07T05:21:00.289Z,18.21
2017-09-07T05:21:40.834Z,18.2
2017-09-07T05:22:21.383Z,18.3
2017-09-07T05:23:01.998Z,18.44
2017-09-07T05:23:42.575Z,18.45
2017-09-07T05:24:23.262Z,18.39
2017-09-07T05:25:03.941Z,18.42
2017-09-07T05:25:44.446Z,18.35
2017-09-07T05:26:25.143Z,18.44
2017-09-07T05:27:05.696Z,18.55
2017-09-07T05:27:46.268Z,18.54
2017-09-07T05:28:26.834Z,18.58
2017-09-07T05:29:07.401Z,18.66
2017-09-07T05:29:47.972Z,18.82
2017-09-07T05:30:28.555Z,18.69
2017-09-07T05:31:09.104Z,18.82
2017-09-07T05:31:49.668Z,18.91
2017-09-07T05:32:30.228Z,18.88
2017-09-07T05:33:10.802Z,18.82
2017-09-07T05:33:51.366Z,18.87
2017-09-07T05:34:31.930Z,18.84
2017-09-07T05:35:12.499Z,18.84
2017-09-07T05:35:53.058Z,19
2017-09-07T05:36:33.606Z,19.08
2017-09-07T05:37:14.178Z,19.07
2017-09-07T05:37:54.748Z,19.02
2017-09-07T05:38:35.309Z,19.07
2017-09-07T05:39:15.891Z,19.06
2017-09-07T05:39:56.459Z,19.02
2017-09-07T05:40:37.028Z,19.08
2017-09-07T05:41:17.573Z,19.11
2017-09-07T05:41:58.147Z,19.18
2017-09-07T05:42:38.696Z,19.16
2017-09-07T05:43:19.281Z,19.14
2017-09-07T05:43:59.807Z,19.18
2017-09-07T05:44:40.326Z,19.19
2017-09-07T05:45:20.874Z,19.16
2017-09-07T05:46:01.422Z,19
2017-09-07T05:46:41.963Z,19.07
2017-09-07T05:47:22.560Z,19.11
2017-09-07T05:48:03.143Z,18.91
2017-09-07T05:48:43.681Z,19.06
2017-09-07T05:49:24.180Z,19.07
2017-09-07T05:50:04.752Z,19.28
2017-09-07T05:50:45.343Z,19.13
2017-09-07T05:51:25.844Z,19.14
2017-09-07T05:52:06.378Z,19.22
2017-09-07T05:52:46.979Z,19.23
2017-09-07T05:53:27.502Z,19.36
2017-09-07T05:54:08.107Z,19.4
2017-09-07T05:54:48.628Z,19.37
2017-09-07T05:55:29.204Z,19.32
2017-09-07T05:56:09.749Z,19.31
2017-09-07T05:56:50.305Z,19.44
2017-09-07T05:57:30.937Z,19.44
2017-09-07T05:58:11.445Z,19.43
2017-09-07T05:58:51.944Z,19.54
2017-09-07T05:59:32.504Z,19.51
2017-09-07T06:00:13.027Z,19.44
2017-09-07T06:00:53.617Z,19.5
2017-09-07T06:01:34.234Z,19.47
2017-09-07T06:02:14.759Z,19.54
2017-09-07T06:02:55.267Z,19.61
2017-09-07T06:03:35.863Z,19.61
2017-09-07T06:04:16.420Z,19.74
2017-09-07T06:04:56.958Z,19.73
2017-09-07T06:05:37.497Z,19.77
2017-09-07T06:06:18.036Z,19.71
2017-09-07T06:06:58.612Z,19.65
2017-09-07T06:07:39.163Z,19.66
2017-09-07T06:08:19.698Z,19.69
2017-09-07T06:09:00.275Z,19.77
2017-09-07T06:09:40.883Z,19.76
2017-09-07T06:10:21.445Z,19.71
2017-09-07T06:11:01.998Z,19.69
2017-09-07T06:11:42.547Z,19.8
2017-09-07T06:12:23.099Z,19.84
2017-09-07T06:13:03.743Z,19.73
2017-09-07T06:13:44.224Z,19.8
2017-09-07T06:14:24.823Z,19.66
2017-09-07T06:15:05.351Z,19.81
2017-09-07T06:15:45.895Z,19.95
2017-09-07T06:16:26.456Z,19.98
2017-09-07T06:17:07.017Z,19.87
2017-09-07T06:17:47.605Z,19.91
2017-09-07T06:18:28.152Z,19.94
2017-09-07T06:19:08.866Z,19.81
2017-09-07T06:19:49.392Z,19.92
2017-09-07T06:20:30.533Z,19.83
2017-09-07T06:21:11.433Z,19.86
2017-09-07T06:21:52.124Z,19.87
2017-09-07T06:22:32.694Z,19.86
2017-09-07T06:23:13.169Z,19.94
2017-09-07T06:23:53.768Z,19.88
2017-09-07T06:24:34.508Z,20.13
2017-09-07T06:25:14.993Z,19.94
2017-09-07T06:25:55.536Z,19.99
2017-09-07T06:26:36.082Z,19.95
2017-09-07T06:27:16.662Z,19.92
2017-09-07T06:27:57.205Z,19.81
2017-09-07T06:28:37.741Z,19.92
2017-09-07T06:29:18.350Z,19.95
2017-09-07T06:29:58.882Z,19.91
2017-09-07T06:30:39.401Z,20.03
2017-09-07T06:31:19.980Z,20.16
2017-09-07T06:32:00.451Z,20.2
2017-09-07T06:32:41.048Z,20.13
2017-09-07T06:33:21.566Z,20.2
2017-09-07T06:34:02.116Z,20.31
2017-09-07T06:34:42.800Z,20.42
2017-09-07T06:35:23.361Z,20.42
2017-09-07T06:36:03.938Z,20.48
2017-09-07T06:36:44.539Z,20.57
2017-09-07T06:37:25.015Z,20.74
2017-09-07T06:38:05.545Z,20.61
2017-09-07T06:38:46.137Z,20.55
2017-09-07T06:39:26.718Z,20.57
2017-09-07T06:40:07.259Z,20.55
2017-09-07T06:40:47.819Z,20.55
2017-09-07T06:41:28.376Z,20.59
2017-09-07T06:42:08.999Z,20.42
2017-09-07T06:42:49.595Z,20.5
2017-09-07T06:43:30.164Z,20.41
2017-09-07T06:44:10.750Z,20.43
2017-09-07T06:44:51.292Z,20.41
2017-09-07T06:45:31.952Z,20.5
2017-09-07T06:46:12.447Z,20.57
2017-09-07T06:46:53.025Z,20.59
2017-09-07T06:47:33.566Z,20.62
2017-09-07T06:48:14.087Z,20.58
2017-09-07T06:48:54.770Z,20.58
2017-09-07T06:49:35.300Z,20.57
2017-09-07T06:50:15.953Z,20.55
2017-09-07T06:50:56.900Z,20.69
2017-09-07T06:51:37.552Z,20.52
2017-09-07T06:52:18.107Z,20.58
2017-09-07T06:52:58.705Z,20.62
2017-09-07T06:53:39.282Z,20.84
2017-09-07T06:54:20.145Z,20.82
2017-09-07T06:55:00.653Z,20.67
2017-09-07T06:55:41.213Z,20.8
2017-09-07T06:56:21.857Z,20.77
2017-09-07T06:57:02.450Z,20.82
2017-09-07T06:57:43.043Z,20.84
2017-09-07T06:58:23.570Z,20.7
2017-09-07T06:59:04.124Z,20.76
2017-09-07T06:59:44.639Z,20.74
2017-09-07T07:00:25.200Z,20.85
2017-09-07T07:01:05.780Z,20.94
2017-09-07T07:01:46.286Z,20.55
2017-09-07T07:02:26.833Z,20.48
2017-09-07T07:03:07.404Z,20.57
2017-09-07T07:03:47.991Z,20.61
2017-09-07T07:04:28.508Z,20.72
2017-09-07T07:05:09.054Z,20.8
2017-09-07T07:05:49.608Z,20.85
2017-09-07T07:06:30.260Z,20.97
2017-09-07T07:07:10.796Z,20.99
2017-09-07T07:07:51.384Z,21.1
2017-09-07T07:08:31.920Z,20.95
2017-09-07T07:09:12.458Z,20.69
2017-09-07T07:09:52.980Z,20.73
2017-09-07T07:10:33.497Z,20.66
2017-09-07T07:11:14.092Z,20.82
2017-09-07T07:11:54.635Z,20.89
2017-09-07T07:12:35.151Z,20.89
2017-09-07T07:13:15.701Z,20.89
2017-09-07T07:13:56.216Z,21.12
2017-09-07T07:14:36.806Z,21.07
2017-09-07T07:15:17.331Z,21.32
2017-09-07T07:15:57.909Z,21.28
2017-09-07T07:16:38.431Z,21.28
2017-09-07T07:17:19.007Z,21.13
2017-09-07T07:17:59.573Z,21.19
2017-09-07T07:18:40.149Z,21.19
2017-09-07T07:19:20.669Z,21.21
2017-09-07T07:20:01.233Z,21.32
2017-09-07T07:20:41.779Z,21.47
2017-09-07T07:21:22.265Z,21.32
2017-09-07T07:22:02.795Z,21.24
2017-09-07T07:22:43.318Z,21.22
2017-09-07T07:23:23.863Z,21.22
2017-09-07T07:24:04.439Z,21.14
2017-09-07T07:24:44.917Z,21.04
2017-09-07T07:25:25.510Z,21.04
2017-09-07T07:26:06.052Z,20.94
2017-09-07T07:26:46.654Z,20.62
2017-09-07T07:27:27.169Z,20.8
2017-09-07T07:28:07.776Z,20.87
2017-09-07T07:28:48.343Z,21.07
2017-09-07T07:29:28.899Z,21.03
2017-09-07T07:30:09.448Z,21.17
2017-09-07T07:30:50.091Z,21.43
2017-09-07T07:31:30.567Z,21.43
2017-09-07T07:32:11.204Z,21.54
2017-09-07T07:32:51.682Z,21.46
2017-09-07T07:33:32.217Z,21.54
2017-09-07T07:34:12.755Z,21.35
2017-09-07T07:34:53.278Z,21.61
2017-09-07T07:35:33.851Z,21.59
2017-09-07T07:36:14.400Z,21.5
2017-09-07T07:36:54.928Z,21.69
2017-09-07T07:37:35.495Z,21.72
2017-09-07T07:38:16.056Z,21.8
2017-09-07T07:38:56.582Z,21.68
2017-09-07T07:39:37.142Z,21.71
2017-09-07T07:40:17.704Z,21.83
2017-09-07T07:40:58.270Z,21.9
2017-09-07T07:41:38.809Z,21.9
2017-09-07T07:42:19.340Z,22.02
2017-09-07T07:42:59.840Z,21.96
2017-09-07T07:43:40.411Z,21.9
2017-09-07T07:44:21.004Z,21.94
2017-09-07T07:45:01.552Z,22.03
2017-09-07T07:45:42.098Z,22.05
2017-09-07T07:46:22.654Z,21.88
2017-09-07T07:47:03.209Z,21.72
2017-09-07T07:47:43.779Z,21.67
2017-09-07T07:48:24.390Z,21.77
2017-09-07T07:49:04.974Z,21.69
2017-09-07T07:49:45.535Z,21.69
2017-09-07T07:50:26.109Z,21.46
2017-09-07T07:51:06.700Z,21.59
2017-09-07T07:51:47.275Z,21.74
2017-09-07T07:52:27.829Z,21.75
2017-09-07T07:53:08.572Z,21.72
2017-09-07T07:53:49.155Z,21.92
2017-09-07T07:54:29.666Z,21.82
2017-09-07T07:55:10.251Z,21.61
2017-09-07T07:55:50.784Z,21.72
2017-09-07T07:56:31.353Z,21.96
2017-09-07T07:57:11.885Z,22.05
2017-09-07T07:57:52.417Z,22.1
2017-09-07T07:58:33.014Z,22.18
2017-09-07T07:59:13.583Z,22.17
2017-09-07T07:59:54.105Z,22.14
2017-09-07T08:00:34.652Z,22.17
2017-09-07T08:01:15.295Z,22.18
2017-09-07T08:01:55.952Z,22.17
2017-09-07T08:02:36.552Z,22.14
2017-09-07T08:03:17.224Z,22.22
2017-09-07T08:03:57.736Z,22.22
2017-09-07T08:04:38.302Z,22.22
2017-09-07T08:05:18.793Z,22.12
2017-09-07T08:05:59.432Z,22.09
2017-09-07T08:06:39.995Z,22
2017-09-07T08:07:20.603Z,22
2017-09-07T08:08:01.183Z,21.99
2017-09-07T08:08:41.774Z,21.96
2017-09-07T08:09:22.366Z,21.94
2017-09-07T08:10:02.884Z,21.79
2017-09-07T08:10:43.457Z,21.91
2017-09-07T08:11:23.994Z,21.99
2017-09-07T08:12:04.529Z,22.03
2017-09-07T08:12:45.129Z,22.03
2017-09-07T08:13:25.670Z,21.92
2017-09-07T08:14:06.219Z,21.99
2017-09-07T08:14:46.811Z,21.9
2017-09-07T08:15:27.354Z,22.02
2017-09-07T08:16:07.899Z,22
2017-09-07T08:16:48.461Z,22
2017-09-07T08:17:28.992Z,22.03
2017-09-07T08:18:09.519Z,21.96
2017-09-07T08:18:50.140Z,21.9
2017-09-07T08:19:30.754Z,22.05
2017-09-07T08:20:11.333Z,21.98
2017-09-07T08:20:51.856Z,22.05
2017-09-07T08:21:32.445Z,21.99
2017-09-07T08:22:12.942Z,22.03
2017-09-07T08:22:53.493Z,22.07
2017-09-07T08:23:34.033Z,22.14
2017-09-07T08:24:14.593Z,22.05
2017-09-07T08:24:55.187Z,22
2017-09-07T08:25:35.702Z,22.09
2017-09-07T08:26:16.281Z,22.2
2017-09-07T08:26:56.779Z,22.3
2017-09-07T08:27:37.335Z,22.54
2017-09-07T08:28:17.919Z,22.49
2017-09-07T08:28:58.478Z,22.47
2017-09-07T08:29:39.030Z,22.46
2017-09-07T08:30:19.602Z,22.55
2017-09-07T08:31:00.156Z,22.4
2017-09-07T08:31:40.694Z,22.47
2017-09-07T08:32:21.303Z,22.61
2017-09-07T08:33:01.799Z,22.61
2017-09-07T08:33:42.344Z,22.51
2017-09-07T08:34:22.877Z,22.64
2017-09-07T08:35:03.469Z,22.65
2017-09-07T08:35:43.997Z,22.65
2017-09-07T08:36:24.555Z,22.58
2017-09-07T08:37:05.070Z,22.62
2017-09-07T08:37:45.611Z,22.55
2017-09-07T08:38:26.180Z,22.22
2017-09-07T08:39:06.699Z,22.27
2017-09-07T08:39:47.236Z,22.35
2017-09-07T08:40:27.777Z,22.3
2017-09-07T08:41:08.305Z,22.33
2017-09-07T08:41:48.832Z,22.17
2017-09-07T08:42:29.384Z,22.2
2017-09-07T08:43:09.935Z,22.12
2017-09-07T08:43:50.583Z,22.02
2017-09-07T08:44:31.191Z,22.15
2017-09-07T08:45:11.726Z,22.2